Time,TemperatureF,DewpointF,PressureIn,WindDirection,WindDirectionDegrees,WindSpeedMPH,WindSpeedGustMPH,Humidity,HourlyPrecipIn,Conditions,Clouds,dailyrainin,SoftwareType,DateUTC
2013-06-13 00:00:00,52.9,45.9,30.13,SW,225,0.0,0.4,77,0.00,,,0.00,WUHU216HW,2013-06-13 07:00:00,
2013-06-13 00:05:00,52.9,45.9,30.13,SW,225,0.4,1.1,77,0.00,,,0.00,WUHU216HW,2013-06-13 07:05:00,
2013-06-13 00:10:00,52.7,45.7,30.13,SW,225,0.0,1.1,77,0.00,,,0.00,WUHU216HW,2013-06-13 07:10:00,
2013-06-13 00:15:00,52.7,45.7,30.13,SW,225,0.0,0.7,77,0.00,,,0.00,WUHU216HW,2013-06-13 07:15:00,
2013-06-13 00:20:00,52.6,45.9,30.13,SSW,203,0.0,0.4,78,0.00,,,0.00,WUHU216HW,2013-06-13 07:20:00,
2013-06-13 00:25:00,52.6,45.9,30.13,SW,225,0.0,1.1,78,0.00,,,0.00,WUHU216HW,2013-06-13 07:25:00,
2013-06-13 00:30:00,52.4,45.7,30.13,SW,225,0.7,1.1,78,0.00,,,0.00,WUHU216HW,2013-06-13 07:30:00,
2013-06-13 00:35:00,52.4,45.7,30.13,SW,225,0.9,0.9,78,0.00,,,0.00,WUHU216HW,2013-06-13 07:35:00,
2013-06-13 00:40:00,52.4,45.7,30.13,SW,225,1.1,1.6,78,0.00,,,0.00,WUHU216HW,2013-06-13 07:40:00,
2013-06-13 00:45:00,52.4,45.7,30.13,WSW,248,0.9,1.8,78,0.00,,,0.00,WUHU216HW,2013-06-13 07:45:00,
2013-06-13 00:50:00,52.2,45.5,30.13,WSW,248,1.3,1.8,78,0.00,,,0.00,WUHU216HW,2013-06-13 07:50:00,
2013-06-13 00:55:00,52.2,45.5,30.13,WSW,248,0.7,1.8,78,0.00,,,0.00,WUHU216HW,2013-06-13 07:55:00,
2013-06-13 01:00:00,52.0,45.4,30.13,SW,225,1.3,1.8,78,0.00,,,0.00,WUHU216HW,2013-06-13 08:00:00,
2013-06-13 01:05:00,52.0,45.4,30.13,SW,225,1.6,2.0,78,0.00,,,0.00,WUHU216HW,2013-06-13 08:05:00,
2013-06-13 01:10:00,52.0,45.7,30.13,SW,225,1.1,2.0,79,0.00,,,0.00,WUHU216HW,2013-06-13 08:10:00,
2013-06-13 01:15:00,51.8,45.5,30.13,SW,225,1.1,1.8,79,0.00,,,0.00,WUHU216HW,2013-06-13 08:15:00,
2013-06-13 01:20:00,51.8,45.5,30.13,WSW,248,1.3,1.6,79,0.00,,,0.00,WUHU216HW,2013-06-13 08:20:00,
2013-06-13 01:25:00,51.8,45.5,30.13,WSW,248,0.9,1.3,79,0.00,,,0.00,WUHU216HW,2013-06-13 08:25:00,
2013-06-13 01:30:00,51.8,45.5,30.13,WSW,248,1.1,1.3,79,0.00,,,0.00,WUHU216HW,2013-06-13 08:30:00,
2013-06-13 01:35:00,51.7,45.4,30.12,SW,225,0.4,1.1,79,0.00,,,0.00,WUHU216HW,2013-06-13 08:35:00,
2013-06-13 01:40:00,51.7,45.4,30.12,SW,225,0.4,1.1,79,0.00,,,0.00,WUHU216HW,2013-06-13 08:40:00,
2013-06-13 01:45:00,51.8,45.5,30.12,SW,225,0.4,0.9,79,0.00,,,0.00,WUHU216HW,2013-06-13 08:45:00,
2013-06-13 01:50:00,51.7,45.7,30.12,SW,225,0.4,1.1,80,0.00,,,0.00,WUHU216HW,2013-06-13 08:50:00,
2013-06-13 01:55:00,51.7,45.7,30.12,SW,225,0.0,1.1,80,0.00,,,0.00,WUHU216HW,2013-06-13 08:55:00,
2013-06-13 02:00:00,51.7,45.7,30.12,SW,225,0.2,1.1,80,0.00,,,0.00,WUHU216HW,2013-06-13 09:00:00,
2013-06-13 02:05:00,51.7,45.7,30.12,SW,225,0.4,1.1,80,0.00,,,0.00,WUHU216HW,2013-06-13 09:05:00,
2013-06-13 02:10:00,51.7,45.7,30.12,SW,225,0.4,1.1,80,0.00,,,0.00,WUHU216HW,2013-06-13 09:10:00,
2013-06-13 02:15:00,51.7,45.7,30.12,SW,225,1.1,1.3,80,0.00,,,0.00,WUHU216HW,2013-06-13 09:15:00,
2013-06-13 02:20:00,51.8,45.9,30.13,WSW,248,0.4,1.3,80,0.00,,,0.00,WUHU216HW,2013-06-13 09:20:00,
2013-06-13 02:25:00,51.8,45.9,30.12,SW,225,0.4,1.3,80,0.00,,,0.00,WUHU216HW,2013-06-13 09:25:00,
2013-06-13 02:30:00,51.8,45.9,30.13,SW,225,0.0,0.9,80,0.00,,,0.00,WUHU216HW,2013-06-13 09:30:00,
2013-06-13 02:35:00,51.8,45.9,30.13,SW,225,0.0,0.7,80,0.00,,,0.00,WUHU216HW,2013-06-13 09:35:00,
2013-06-13 02:40:00,52.0,46.1,30.13,SW,225,0.4,1.3,80,0.00,,,0.00,WUHU216HW,2013-06-13 09:40:00,
2013-06-13 02:45:00,52.0,46.4,30.12,WSW,248,0.7,1.3,81,0.00,,,0.00,WUHU216HW,2013-06-13 09:45:00,
2013-06-13 02:50:00,52.0,46.4,30.12,SW,225,0.7,1.8,81,0.00,,,0.00,WUHU216HW,2013-06-13 09:50:00,
2013-06-13 02:55:00,52.2,46.5,30.13,SW,225,0.9,1.8,81,0.00,,,0.00,WUHU216HW,2013-06-13 09:55:00,
2013-06-13 03:00:00,52.2,46.5,30.12,SW,225,0.0,1.6,81,0.00,,,0.00,WUHU216HW,2013-06-13 10:00:00,
2013-06-13 03:05:00,52.2,46.5,30.13,SW,225,0.0,0.9,81,0.00,,,0.00,WUHU216HW,2013-06-13 10:05:00,
2013-06-13 03:10:00,52.2,46.5,30.13,SW,225,0.0,0.2,81,0.00,,,0.00,WUHU216HW,2013-06-13 10:10:00,
2013-06-13 03:15:00,52.4,46.7,30.13,SW,225,0.0,0.4,81,0.00,,,0.00,WUHU216HW,2013-06-13 10:15:00,
2013-06-13 04:00:00,51.7,46.0,30.12,SW,225,0.0,0.0,81,0.00,,,0.00,WUHU216HW,2013-06-13 11:00:00,
2013-06-13 04:05:00,51.5,45.8,30.12,SW,225,0.0,0.2,81,0.00,,,0.00,WUHU216HW,2013-06-13 11:05:00,
2013-06-13 04:10:00,51.5,45.8,30.12,SW,225,0.4,1.1,81,0.00,,,0.00,WUHU216HW,2013-06-13 11:10:00,
2013-06-13 04:15:00,51.5,45.8,30.12,SW,225,0.4,1.1,81,0.00,,,0.00,WUHU216HW,2013-06-13 11:15:00,
2013-06-13 04:20:00,51.3,46.0,30.12,WSW,248,0.4,0.9,82,0.00,,,0.00,WUHU216HW,2013-06-13 11:20:00,
2013-06-13 04:24:00,51.3,46.0,30.12,SW,225,1.3,1.8,82,0.00,,,0.00,WUHU216HW,2013-06-13 11:24:00,
2013-06-13 04:29:00,51.3,46.0,30.12,SW,225,1.1,1.8,82,0.00,,,0.00,WUHU216HW,2013-06-13 11:29:00,
2013-06-13 04:34:00,51.3,46.0,30.12,SW,225,0.4,1.6,82,0.00,,,0.00,WUHU216HW,2013-06-13 11:34:00,
2013-06-13 04:39:00,51.3,46.0,30.12,SW,225,0.7,1.3,82,0.00,,,0.00,WUHU216HW,2013-06-13 11:39:00,
2013-06-13 04:44:00,51.3,46.0,30.12,SW,225,0.2,1.1,82,0.00,,,0.00,WUHU216HW,2013-06-13 11:44:00,
2013-06-13 04:49:00,51.3,46.0,30.12,SW,225,0.0,1.1,82,0.00,,,0.00,WUHU216HW,2013-06-13 11:49:00,
2013-06-13 04:54:00,51.5,46.2,30.12,SW,225,0.0,0.2,82,0.00,,,0.00,WUHU216HW,2013-06-13 11:54:00,
2013-06-13 04:59:00,51.5,46.2,30.12,SW,225,0.0,0.0,82,0.00,,,0.00,WUHU216HW,2013-06-13 11:59:00,
2013-06-13 05:04:00,51.5,46.2,30.12,SW,225,0.0,0.0,82,0.00,,,0.00,WUHU216HW,2013-06-13 12:04:00,
2013-06-13 05:09:00,51.3,46.0,30.12,SW,225,0.0,0.0,82,0.00,,,0.00,WUHU216HW,2013-06-13 12:09:00,
2013-06-13 05:14:00,51.3,46.0,30.13,SW,225,0.0,0.0,82,0.00,,,0.00,WUHU216HW,2013-06-13 12:14:00,
2013-06-13 05:19:00,51.3,46.0,30.12,SW,225,0.0,0.0,82,0.00,,,0.00,WUHU216HW,2013-06-13 12:19:00,
2013-06-13 05:24:00,51.5,46.2,30.12,SW,225,0.0,0.0,82,0.00,,,0.00,WUHU216HW,2013-06-13 12:24:00,
2013-06-13 05:29:00,51.5,46.2,30.12,SW,225,0.0,0.0,82,0.00,,,0.00,WUHU216HW,2013-06-13 12:29:00,
2013-06-13 05:34:00,51.5,46.4,30.13,SW,225,0.0,0.0,83,0.00,,,0.00,WUHU216HW,2013-06-13 12:34:00,
2013-06-13 05:39:00,51.5,46.4,30.13,SW,225,0.0,0.0,83,0.00,,,0.00,WUHU216HW,2013-06-13 12:39:00,
2013-06-13 05:44:00,51.5,46.4,30.13,SW,225,0.0,0.0,83,0.00,,,0.00,WUHU216HW,2013-06-13 12:44:00,
2013-06-13 05:49:00,51.5,46.4,30.13,SW,225,0.0,0.0,83,0.00,,,0.00,WUHU216HW,2013-06-13 12:49:00,
2013-06-13 05:54:00,51.5,46.4,30.13,SW,225,0.0,0.0,83,0.00,,,0.00,WUHU216HW,2013-06-13 12:54:00,
2013-06-13 05:59:00,51.5,46.8,30.13,SW,225,0.0,0.0,84,0.00,,,0.00,WUHU216HW,2013-06-13 12:59:00,
2013-06-13 06:04:00,51.5,46.8,30.13,SW,225,0.0,0.0,84,0.00,,,0.00,WUHU216HW,2013-06-13 13:04:00,
2013-06-13 06:09:00,51.7,47.0,30.13,SW,225,0.0,0.0,84,0.00,,,0.00,WUHU216HW,2013-06-13 13:09:00,
2013-06-13 06:14:00,51.8,47.2,30.13,SW,225,0.0,0.0,84,0.00,,,0.00,WUHU216HW,2013-06-13 13:14:00,
2013-06-13 06:19:00,51.8,47.2,30.13,SW,225,0.0,0.0,84,0.00,,,0.00,WUHU216HW,2013-06-13 13:19:00,
2013-06-13 06:24:00,52.0,47.4,30.13,SW,225,0.0,0.0,84,0.00,,,0.00,WUHU216HW,2013-06-13 13:24:00,
2013-06-13 06:29:00,52.2,47.5,30.13,SW,225,0.0,0.0,84,0.00,,,0.00,WUHU216HW,2013-06-13 13:29:00,
2013-06-13 06:34:00,52.2,47.5,30.14,NW,315,0.0,0.4,84,0.00,,,0.00,WUHU216HW,2013-06-13 13:34:00,
2013-06-13 06:39:00,52.6,47.9,30.13,SW,225,0.0,1.1,84,0.00,,,0.00,WUHU216HW,2013-06-13 13:39:00,
2013-06-13 06:44:00,52.9,48.3,30.14,WSW,248,0.4,1.1,84,0.00,,,0.00,WUHU216HW,2013-06-13 13:44:00,
2013-06-13 06:49:00,53.1,48.4,30.14,SW,225,1.1,2.2,84,0.00,,,0.00,WUHU216HW,2013-06-13 13:49:00,
2013-06-13 06:54:00,53.5,48.8,30.14,WNW,293,0.9,2.9,84,0.00,,,0.00,WUHU216HW,2013-06-13 13:54:00,
2013-06-13 06:59:00,53.5,48.8,30.14,WSW,248,1.8,2.9,84,0.00,,,0.00,WUHU216HW,2013-06-13 13:59:00,
2013-06-13 07:04:00,53.6,49.0,30.14,SSW,203,0.0,1.8,84,0.00,,,0.00,WUHU216HW,2013-06-13 14:04:00,
2013-06-13 07:09:00,53.6,49.0,30.14,WSW,248,0.4,1.1,84,0.00,,,0.00,WUHU216HW,2013-06-13 14:09:00,
2013-06-13 07:14:00,54.0,49.2,30.14,SW,225,0.0,1.3,84,0.00,,,0.00,WUHU216HW,2013-06-13 14:14:00,
2013-06-13 07:19:00,54.4,49.6,30.14,WSW,248,0.7,1.3,84,0.00,,,0.00,WUHU216HW,2013-06-13 14:19:00,
2013-06-13 07:24:00,54.7,49.6,30.14,ESE,113,0.2,1.1,83,0.00,,,0.00,WUHU216HW,2013-06-13 14:24:00,
2013-06-13 07:29:00,55.1,50.0,30.14,SW,225,0.4,1.3,83,0.00,,,0.00,WUHU216HW,2013-06-13 14:29:00,
2013-06-13 07:34:00,55.6,50.1,30.14,SW,225,0.2,1.3,82,0.00,,,0.00,WUHU216HW,2013-06-13 14:34:00,
2013-06-13 07:39:00,55.8,50.3,30.14,WSW,248,0.4,2.7,82,0.00,,,0.00,WUHU216HW,2013-06-13 14:39:00,
2013-06-13 07:44:00,56.0,50.5,30.14,WSW,248,3.4,3.4,82,0.00,,,0.00,WUHU216HW,2013-06-13 14:44:00,
2013-06-13 07:49:00,55.8,50.1,30.14,SSW,203,1.3,3.4,81,0.00,,,0.00,WUHU216HW,2013-06-13 14:49:00,
2013-06-13 07:54:00,55.8,50.1,30.14,NE,45,0.2,3.4,81,0.00,,,0.00,WUHU216HW,2013-06-13 14:54:00,
2013-06-13 07:59:00,55.8,50.1,30.14,WSW,248,2.9,3.8,81,0.00,,,0.00,WUHU216HW,2013-06-13 14:59:00,
2013-06-13 08:04:00,55.8,50.1,30.14,SSE,158,0.4,3.8,81,0.00,,,0.00,WUHU216HW,2013-06-13 15:04:00,
2013-06-13 08:09:00,56.0,50.2,30.14,SW,225,2.0,3.4,81,0.00,,,0.00,WUHU216HW,2013-06-13 15:09:00,
2013-06-13 08:14:00,56.2,50.4,30.14,SW,225,0.4,2.7,81,0.00,,,0.00,WUHU216HW,2013-06-13 15:14:00,
2013-06-13 08:19:00,56.2,50.4,30.14,SE,135,0.4,2.0,81,0.00,,,0.00,WUHU216HW,2013-06-13 15:19:00,
2013-06-13 08:24:00,56.2,50.4,30.14,East,90,0.4,0.9,81,0.00,,,0.00,WUHU216HW,2013-06-13 15:24:00,
2013-06-13 08:29:00,56.2,50.4,30.15,WSW,248,0.4,1.3,81,0.00,,,0.00,WUHU216HW,2013-06-13 15:29:00,
2013-06-13 08:34:00,56.3,50.6,30.15,WSW,248,0.7,1.3,81,0.00,,,0.00,WUHU216HW,2013-06-13 15:34:00,
2013-06-13 08:39:00,57.2,51.5,30.15,WSW,248,0.9,2.5,81,0.00,,,0.00,WUHU216HW,2013-06-13 15:39:00,
2013-06-13 08:44:00,58.5,52.4,30.15,ESE,113,0.9,2.5,80,0.00,,,0.00,WUHU216HW,2013-06-13 15:44:00,
2013-06-13 08:49:00,59.8,52.6,30.15,North,0,2.5,5.1,77,0.00,,,0.00,WUHU216HW,2013-06-13 15:49:00,
2013-06-13 08:54:00,60.1,52.9,30.15,NNE,23,4.5,5.4,77,0.00,,,0.00,WUHU216HW,2013-06-13 15:54:00,
2013-06-13 08:59:00,59.6,52.0,30.15,NE,45,1.8,5.4,76,0.00,,,0.00,WUHU216HW,2013-06-13 15:59:00,
2013-06-13 09:04:00,58.9,51.3,30.15,ENE,68,3.6,4.5,76,0.00,,,0.00,WUHU216HW,2013-06-13 16:04:00,
2013-06-13 09:09:00,58.0,50.4,30.15,NNW,338,0.4,4.3,76,0.00,,,0.00,WUHU216HW,2013-06-13 16:09:00,
2013-06-13 09:14:00,57.6,50.4,30.15,East,90,0.9,4.3,77,0.00,,,0.00,WUHU216HW,2013-06-13 16:14:00,
2013-06-13 09:19:00,57.4,50.6,30.15,North,0,0.2,3.4,78,0.00,,,0.00,WUHU216HW,2013-06-13 16:19:00,
2013-06-13 09:24:00,58.3,51.5,30.15,NNW,338,1.3,3.4,78,0.00,,,0.00,WUHU216HW,2013-06-13 16:24:00,
2013-06-13 09:29:00,60.1,52.6,30.15,ENE,68,2.5,2.5,76,0.00,,,0.00,WUHU216HW,2013-06-13 16:29:00,
2013-06-13 09:34:00,60.7,52.0,30.15,NNE,23,0.9,3.8,73,0.00,,,0.00,WUHU216HW,2013-06-13 16:34:00,
2013-06-13 09:39:00,61.9,52.8,30.15,SSW,203,1.1,4.3,72,0.00,,,0.00,WUHU216HW,2013-06-13 16:39:00,
2013-06-13 09:44:00,63.0,52.7,30.15,North,0,0.9,4.7,69,0.00,,,0.00,WUHU216HW,2013-06-13 16:44:00,
2013-06-13 09:49:00,63.4,52.7,30.15,NNE,23,3.6,4.9,68,0.00,,,0.00,WUHU216HW,2013-06-13 16:49:00,
2013-06-13 09:54:00,63.4,52.7,30.15,North,0,3.4,4.9,68,0.00,,,0.00,WUHU216HW,2013-06-13 16:54:00,
2013-06-13 09:59:00,63.4,52.7,30.15,NE,45,3.4,4.5,68,0.00,,,0.00,WUHU216HW,2013-06-13 16:59:00,
2013-06-13 10:04:00,62.8,52.5,30.15,NNW,338,2.2,4.0,69,0.00,,,0.00,WUHU216HW,2013-06-13 17:04:00,
2013-06-13 10:09:00,63.2,52.0,30.15,ENE,68,1.1,4.0,67,0.00,,,0.00,WUHU216HW,2013-06-13 17:09:00,
2013-06-13 10:14:00,63.4,52.7,30.15,NNE,23,3.1,4.7,68,0.00,,,0.00,WUHU216HW,2013-06-13 17:14:00,
2013-06-13 10:19:00,63.7,52.6,30.15,NE,45,3.6,4.7,67,0.00,,,0.00,WUHU216HW,2013-06-13 17:19:00,
2013-06-13 10:24:00,63.9,52.3,30.15,NNE,23,1.8,4.0,66,0.00,,,0.00,WUHU216HW,2013-06-13 17:24:00,
2013-06-13 10:29:00,65.2,53.5,30.15,North,0,2.5,4.5,66,0.00,,,0.00,WUHU216HW,2013-06-13 17:29:00,
2013-06-13 10:34:00,65.7,53.6,30.15,NW,315,1.6,5.4,65,0.00,,,0.00,WUHU216HW,2013-06-13 17:34:00,
2013-06-13 10:39:00,65.2,53.1,30.15,West,270,1.1,5.4,65,0.00,,,0.00,WUHU216HW,2013-06-13 17:39:00,
2013-06-13 10:44:00,63.7,51.7,30.16,ESE,113,0.9,3.8,65,0.00,,,0.00,WUHU216HW,2013-06-13 17:44:00,
2013-06-13 10:49:00,62.6,51.5,30.16,SW,225,1.1,3.8,67,0.00,,,0.00,WUHU216HW,2013-06-13 17:49:00,
2013-06-13 10:54:00,61.6,50.9,30.16,SW,225,0.0,3.6,68,0.00,,,0.00,WUHU216HW,2013-06-13 17:54:00,
2013-06-13 10:59:00,61.0,50.5,30.16,SW,225,1.8,4.0,68,0.00,,,0.00,WUHU216HW,2013-06-13 17:59:00,
2013-06-13 11:04:00,61.0,50.9,30.16,SW,225,0.7,4.0,69,0.00,,,0.00,WUHU216HW,2013-06-13 18:04:00,
2013-06-13 12:00:00,60.8,50.7,30.17,SSE,158,1.1,1.1,69,0.00,,,0.00,WUHU216HW,2013-06-13 19:00:00,
2013-06-13 12:05:00,60.8,50.7,30.17,SSE,158,1.8,2.9,69,0.00,,,0.00,WUHU216HW,2013-06-13 19:05:00,
2013-06-13 12:10:00,60.8,51.1,30.17,SE,135,1.1,2.9,70,0.00,,,0.00,WUHU216HW,2013-06-13 19:10:00,
2013-06-13 12:15:00,61.0,51.3,30.17,North,0,1.3,2.7,70,0.00,,,0.00,WUHU216HW,2013-06-13 19:15:00,
2013-06-13 12:20:00,61.6,51.8,30.16,WSW,248,1.3,4.3,70,0.00,,,0.00,WUHU216HW,2013-06-13 19:20:00,
2013-06-13 12:25:00,61.7,51.5,30.16,WNW,293,1.3,4.3,69,0.00,,,0.00,WUHU216HW,2013-06-13 19:25:00,
2013-06-13 12:30:00,62.1,51.8,30.17,NW,315,2.7,3.1,69,0.00,,,0.00,WUHU216HW,2013-06-13 19:30:00,
2013-06-13 12:35:00,61.9,51.3,30.16,WSW,248,2.2,3.4,68,0.00,,,0.00,WUHU216HW,2013-06-13 19:35:00,
2013-06-13 12:40:00,62.3,51.6,30.16,NNW,338,0.7,3.4,68,0.00,,,0.00,WUHU216HW,2013-06-13 19:40:00,
2013-06-13 12:45:00,62.6,51.9,30.17,North,0,1.3,2.7,68,0.00,,,0.00,WUHU216HW,2013-06-13 19:45:00,
2013-06-13 12:50:00,62.6,50.7,30.16,NNE,23,2.0,2.9,65,0.00,,,0.00,WUHU216HW,2013-06-13 19:50:00,
2013-06-13 12:55:00,61.7,51.1,30.16,North,0,2.5,4.0,68,0.00,,,0.00,WUHU216HW,2013-06-13 19:55:00,
2013-06-13 13:00:00,61.4,51.2,30.16,North,0,0.9,4.0,69,0.00,,,0.00,WUHU216HW,2013-06-13 20:00:00,
2013-06-13 13:05:00,62.1,51.8,30.16,East,90,0.7,3.4,69,0.00,,,0.00,WUHU216HW,2013-06-13 20:05:00,
2013-06-13 13:10:00,62.8,52.1,30.16,NNE,23,2.2,4.3,68,0.00,,,0.00,WUHU216HW,2013-06-13 20:10:00,
2013-06-13 13:15:00,63.4,52.7,30.16,North,0,1.3,4.3,68,0.00,,,0.00,WUHU216HW,2013-06-13 20:15:00,
2013-06-13 13:20:00,63.5,51.9,30.16,NE,45,2.5,3.8,66,0.00,,,0.00,WUHU216HW,2013-06-13 20:20:00,
2013-06-13 13:25:00,63.2,51.6,30.16,NNE,23,4.0,4.0,66,0.00,,,0.00,WUHU216HW,2013-06-13 20:25:00,
2013-06-13 13:30:00,63.0,51.0,30.16,ENE,68,1.8,4.0,65,0.00,,,0.00,WUHU216HW,2013-06-13 20:30:00,
2013-06-13 13:35:00,62.8,51.7,30.16,North,0,0.4,4.0,67,0.00,,,0.00,WUHU216HW,2013-06-13 20:35:00,
2013-06-13 13:40:00,63.2,52.0,30.16,NE,45,1.8,3.8,67,0.00,,,0.00,WUHU216HW,2013-06-13 20:40:00,
2013-06-13 13:45:00,63.0,51.8,30.16,North,0,1.3,3.1,67,0.00,,,0.00,WUHU216HW,2013-06-13 20:45:00,
2013-06-13 13:50:00,62.8,50.9,30.16,ENE,68,2.7,3.4,65,0.00,,,0.00,WUHU216HW,2013-06-13 20:50:00,
2013-06-13 13:55:00,62.6,51.5,30.16,NNW,338,0.4,4.0,67,0.00,,,0.00,WUHU216HW,2013-06-13 20:55:00,
2013-06-13 14:00:00,63.0,51.8,30.16,ENE,68,1.8,4.0,67,0.00,,,0.00,WUHU216HW,2013-06-13 21:00:00,
2013-06-13 14:05:00,63.5,51.6,30.16,ENE,68,3.1,3.8,65,0.00,,,0.00,WUHU216HW,2013-06-13 21:05:00,
2013-06-13 14:10:00,63.5,50.7,30.17,North,0,1.8,3.6,63,0.00,,,0.00,WUHU216HW,2013-06-13 21:10:00,
2013-06-13 14:15:00,63.0,49.3,30.16,NE,45,4.3,4.3,61,0.00,,,0.00,WUHU216HW,2013-06-13 21:15:00,
2013-06-13 14:20:00,62.8,50.1,30.16,ESE,113,1.1,4.3,63,0.00,,,0.00,WUHU216HW,2013-06-13 21:20:00,
2013-06-13 14:25:00,63.4,51.4,30.16,North,0,1.3,4.3,65,0.00,,,0.00,WUHU216HW,2013-06-13 21:25:00,
2013-06-13 14:30:00,63.9,51.8,30.16,NE,45,0.2,3.4,65,0.00,,,0.00,WUHU216HW,2013-06-13 21:30:00,
2013-06-13 14:35:00,64.1,52.0,30.16,North,0,0.7,1.6,65,0.00,,,0.00,WUHU216HW,2013-06-13 21:35:00,
2013-06-13 14:40:00,64.3,51.8,30.16,NE,45,2.2,2.5,64,0.00,,,0.00,WUHU216HW,2013-06-13 21:40:00,
2013-06-13 14:45:00,64.1,51.2,30.16,East,90,1.3,2.7,63,0.00,,,0.00,WUHU216HW,2013-06-13 21:45:00,
2013-06-13 14:50:00,64.1,51.6,30.16,WSW,248,1.3,2.9,64,0.00,,,0.00,WUHU216HW,2013-06-13 21:50:00,
2013-06-13 14:55:00,64.4,51.5,30.16,ENE,68,2.2,2.9,63,0.00,,,0.00,WUHU216HW,2013-06-13 21:55:00,
2013-06-13 15:00:00,64.4,51.5,30.16,ENE,68,2.2,4.0,63,0.00,,,0.00,WUHU216HW,2013-06-13 22:00:00,
2013-06-13 15:05:00,65.2,50.9,30.16,East,90,2.9,4.7,60,0.00,,,0.00,WUHU216HW,2013-06-13 22:05:00,
2013-06-13 15:10:00,65.7,52.3,30.16,ENE,68,0.7,4.7,62,0.00,,,0.00,WUHU216HW,2013-06-13 22:10:00,
2013-06-13 15:15:00,66.1,51.4,30.16,ENE,68,3.4,4.0,59,0.00,,,0.00,WUHU216HW,2013-06-13 22:15:00,
2013-06-13 15:20:00,66.1,51.8,30.16,North,0,2.2,4.0,60,0.00,,,0.00,WUHU216HW,2013-06-13 22:20:00,
2013-06-13 15:25:00,66.6,52.7,30.16,NNE,23,2.7,4.0,61,0.00,,,0.00,WUHU216HW,2013-06-13 22:25:00,
2013-06-13 15:30:00,67.3,52.5,30.16,NE,45,3.4,4.7,59,0.00,,,0.00,WUHU216HW,2013-06-13 22:30:00,
2013-06-13 15:35:00,67.7,52.4,30.16,ENE,68,1.1,4.7,58,0.00,,,0.00,WUHU216HW,2013-06-13 22:35:00,
2013-06-13 15:40:00,67.5,51.2,30.16,ENE,68,2.5,6.3,56,0.00,,,0.00,WUHU216HW,2013-06-13 22:40:00,
2013-06-13 15:45:00,67.3,52.0,30.16,North,0,2.5,6.3,58,0.00,,,0.00,WUHU216HW,2013-06-13 22:45:00,
2013-06-13 15:50:00,67.5,51.7,30.16,ESE,113,1.3,3.8,57,0.00,,,0.00,WUHU216HW,2013-06-13 22:50:00,
2013-06-13 15:55:00,66.6,50.0,30.16,ENE,68,2.9,3.8,55,0.00,,,0.00,WUHU216HW,2013-06-13 22:55:00,
2013-06-13 16:00:00,65.9,50.7,30.16,ENE,68,1.8,3.4,58,0.00,,,0.00,WUHU216HW,2013-06-13 23:00:00,
2013-06-13 16:05:00,65.5,50.3,30.16,ENE,68,2.2,3.1,58,0.00,,,0.00,WUHU216HW,2013-06-13 23:05:00,
2013-06-13 16:10:00,65.2,50.5,30.16,ESE,113,1.1,3.1,59,0.00,,,0.00,WUHU216HW,2013-06-13 23:10:00,
2013-06-13 16:15:00,65.2,50.5,30.16,ENE,68,2.5,4.0,59,0.00,,,0.00,WUHU216HW,2013-06-13 23:15:00,
2013-06-13 16:20:00,64.8,50.1,30.16,ENE,68,1.6,4.0,59,0.00,,,0.00,WUHU216HW,2013-06-13 23:20:00,
2013-06-13 16:25:00,64.6,50.0,30.16,East,90,1.3,2.5,59,0.00,,,0.00,WUHU216HW,2013-06-13 23:25:00,
2013-06-13 16:30:00,64.4,50.2,30.16,ENE,68,0.2,1.8,60,0.00,,,0.00,WUHU216HW,2013-06-13 23:30:00,
2013-06-13 16:35:00,64.1,50.3,30.16,ENE,68,0.0,1.8,61,0.00,,,0.00,WUHU216HW,2013-06-13 23:35:00,
2013-06-13 16:40:00,64.4,50.7,30.16,NNW,338,0.7,1.8,61,0.00,,,0.00,WUHU216HW,2013-06-13 23:40:00,
2013-06-13 16:45:00,64.3,50.0,30.16,East,90,1.1,1.1,60,0.00,,,0.00,WUHU216HW,2013-06-13 23:45:00,
2013-06-13 16:50:00,63.7,50.1,30.16,East,90,1.1,1.1,61,0.00,,,0.00,WUHU216HW,2013-06-13 23:50:00,
2013-06-13 16:55:00,63.5,49.9,30.16,North,0,0.9,1.1,61,0.00,,,0.00,WUHU216HW,2013-06-13 23:55:00,
2013-06-13 17:00:00,63.5,51.1,30.17,ESE,113,0.7,2.7,64,0.01,,,0.01,WUHU216HW,2013-06-14 00:00:00,
2013-06-13 17:05:00,63.0,51.4,30.17,ESE,113,0.0,2.7,66,0.01,,,0.01,WUHU216HW,2013-06-14 00:05:00,
2013-06-13 17:10:00,62.5,51.3,30.17,ESE,113,0.0,1.3,67,0.01,,,0.01,WUHU216HW,2013-06-14 00:10:00,
2013-06-13 17:15:00,61.9,51.7,30.17,ESE,113,0.0,0.4,69,0.01,,,0.01,WUHU216HW,2013-06-14 00:15:00,
2013-06-13 17:20:00,61.9,51.7,30.17,SW,225,0.4,0.9,69,0.01,,,0.01,WUHU216HW,2013-06-14 00:20:00,
2013-06-13 17:25:00,61.7,51.9,30.17,SW,225,1.8,2.7,70,0.03,,,0.03,WUHU216HW,2013-06-14 00:25:00,
2013-06-13 17:30:00,61.6,52.5,30.17,SSW,203,0.4,2.7,72,0.08,,,0.08,WUHU216HW,2013-06-14 00:30:00,
2013-06-13 17:35:00,61.2,52.6,30.17,SW,225,0.7,1.8,73,0.11,,,0.11,WUHU216HW,2013-06-14 00:35:00,
2013-06-13 17:40:00,61.0,52.8,30.17,SSW,203,0.0,1.1,74,0.11,,,0.11,WUHU216HW,2013-06-14 00:40:00,
2013-06-13 17:45:00,61.2,53.3,30.17,SW,225,0.2,1.1,75,0.11,,,0.11,WUHU216HW,2013-06-14 00:45:00,
2013-06-13 17:50:00,61.6,53.9,30.17,SW,225,0.0,0.4,76,0.11,,,0.11,WUHU216HW,2013-06-14 00:50:00,
2013-06-13 17:55:00,61.4,53.7,30.17,SW,225,0.0,0.4,76,0.11,,,0.11,WUHU216HW,2013-06-14 00:55:00,
2013-06-13 18:00:00,61.4,54.1,30.17,SW,225,0.0,0.4,77,0.10,,,0.11,WUHU216HW,2013-06-14 01:00:00,
2013-06-13 18:05:00,61.2,54.4,30.17,ESE,113,0.0,0.7,78,0.10,,,0.11,WUHU216HW,2013-06-14 01:05:00,
2013-06-13 18:10:00,61.2,54.4,30.17,ESE,113,0.0,0.7,78,0.10,,,0.11,WUHU216HW,2013-06-14 01:10:00,
2013-06-13 18:15:00,61.2,54.4,30.17,SSE,158,0.4,0.4,78,0.10,,,0.11,WUHU216HW,2013-06-14 01:15:00,
2013-06-13 18:20:00,61.2,54.7,30.17,SSE,158,0.0,0.4,79,0.10,,,0.11,WUHU216HW,2013-06-14 01:20:00,
2013-06-13 18:25:00,61.4,54.8,30.16,SSE,158,0.0,0.4,79,0.08,,,0.11,WUHU216HW,2013-06-14 01:25:00,
2013-06-13 18:30:00,61.4,54.8,30.17,SSE,158,0.0,0.4,79,0.03,,,0.11,WUHU216HW,2013-06-14 01:30:00,
2013-06-13 18:35:00,61.4,54.8,30.17,SSE,158,0.0,0.4,79,0.00,,,0.11,WUHU216HW,2013-06-14 01:35:00,
2013-06-13 18:40:00,61.4,54.8,30.17,SSE,158,0.0,0.2,79,0.00,,,0.11,WUHU216HW,2013-06-14 01:40:00,
2013-06-13 18:45:00,61.4,54.8,30.17,SW,225,0.0,0.4,79,0.00,,,0.11,WUHU216HW,2013-06-14 01:45:00,
2013-06-13 18:50:00,61.2,54.7,30.17,SSW,203,0.4,1.1,79,0.00,,,0.11,WUHU216HW,2013-06-14 01:50:00,
2013-06-13 18:55:00,61.0,54.6,30.17,SSW,203,0.2,1.1,79,0.00,,,0.11,WUHU216HW,2013-06-14 01:55:00,
2013-06-13 19:00:00,60.8,54.7,30.17,SW,225,0.7,1.1,80,0.00,,,0.11,WUHU216HW,2013-06-14 02:00:00,
2013-06-13 19:05:00,60.8,54.7,30.17,SW,225,1.1,1.1,80,0.00,,,0.11,WUHU216HW,2013-06-14 02:05:00,
2013-06-13 19:10:00,60.5,54.7,30.17,SW,225,0.2,1.1,81,0.00,,,0.11,WUHU216HW,2013-06-14 02:10:00,
2013-06-13 19:15:00,60.7,54.9,30.17,SW,225,0.0,1.1,81,0.00,,,0.11,WUHU216HW,2013-06-14 02:15:00,
2013-06-13 19:20:00,60.5,54.7,30.17,SW,225,0.2,0.4,81,0.00,,,0.11,WUHU216HW,2013-06-14 02:20:00,
2013-06-13 19:25:00,60.5,54.7,30.17,SW,225,0.2,0.4,81,0.00,,,0.11,WUHU216HW,2013-06-14 02:25:00,
2013-06-13 19:30:00,60.5,54.7,30.17,SW,225,0.0,0.4,81,0.00,,,0.11,WUHU216HW,2013-06-14 02:30:00,
2013-06-13 19:35:00,60.5,55.0,30.17,SW,225,0.4,0.4,82,0.00,,,0.11,WUHU216HW,2013-06-14 02:35:00,
2013-06-13 19:40:00,60.7,55.2,30.17,SW,225,0.0,0.4,82,0.00,,,0.11,WUHU216HW,2013-06-14 02:40:00,
2013-06-13 19:45:00,60.7,55.2,30.17,SW,225,0.2,0.4,82,0.00,,,0.11,WUHU216HW,2013-06-14 02:45:00,
2013-06-13 19:50:00,60.8,55.4,30.17,SW,225,0.0,0.2,82,0.00,,,0.11,WUHU216HW,2013-06-14 02:50:00,
2013-06-13 19:55:00,60.8,55.4,30.17,SW,225,0.2,0.2,82,0.00,,,0.11,WUHU216HW,2013-06-14 02:55:00,
2013-06-13 20:00:00,60.8,55.7,30.17,SW,225,0.0,0.2,83,0.00,,,0.11,WUHU216HW,2013-06-14 03:00:00,
2013-06-13 20:05:00,60.8,55.7,30.17,SW,225,0.0,0.2,83,0.00,,,0.11,WUHU216HW,2013-06-14 03:05:00,
2013-06-13 20:10:00,60.7,55.5,30.17,SW,225,0.2,0.4,83,0.01,,,0.12,WUHU216HW,2013-06-14 03:10:00,
2013-06-13 20:15:00,60.7,55.5,30.17,SW,225,0.2,0.4,83,0.01,,,0.12,WUHU216HW,2013-06-14 03:15:00,
2013-06-13 20:20:00,60.5,55.4,30.17,SW,225,0.0,0.4,83,0.01,,,0.12,WUHU216HW,2013-06-14 03:20:00,
2013-06-13 20:25:00,60.5,55.4,30.18,SW,225,0.0,0.4,83,0.01,,,0.12,WUHU216HW,2013-06-14 03:25:00,
2013-06-13 20:30:00,60.1,55.0,30.17,SW,225,0.0,0.2,83,0.01,,,0.12,WUHU216HW,2013-06-14 03:30:00,
2013-06-13 20:35:00,59.9,54.8,30.17,SW,225,0.0,0.2,83,0.01,,,0.12,WUHU216HW,2013-06-14 03:35:00,
2013-06-13 20:40:00,59.6,54.5,30.18,SW,225,0.2,0.2,83,0.01,,,0.12,WUHU216HW,2013-06-14 03:40:00,
2013-06-13 20:45:00,59.4,54.3,30.18,SW,225,0.0,0.4,83,0.01,,,0.12,WUHU216HW,2013-06-14 03:45:00,
2013-06-13 20:50:00,59.0,53.9,30.18,SW,225,0.0,0.4,83,0.01,,,0.12,WUHU216HW,2013-06-14 03:50:00,
2013-06-13 20:55:00,58.9,53.7,30.18,SSW,203,0.9,0.9,83,0.01,,,0.12,WUHU216HW,2013-06-14 03:55:00,
2013-06-13 21:00:00,58.7,53.6,30.18,SSW,203,0.4,0.9,83,0.01,,,0.12,WUHU216HW,2013-06-14 04:00:00,
2013-06-13 21:01:00,58.5,53.4,30.18,SSW,203,0.0,0.9,83,0.01,,,0.12,WUHU216HW,2013-06-14 04:01:00,
2013-06-13 21:06:00,58.3,53.2,30.18,SW,225,0.2,1.1,83,0.01,,,0.12,WUHU216HW,2013-06-14 04:06:00,
2013-06-13 21:11:00,58.0,52.8,30.18,SW,225,0.4,1.1,83,0.00,,,0.12,WUHU216HW,2013-06-14 04:11:00,
2013-06-13 21:16:00,57.8,52.7,30.18,SW,225,0.0,0.7,83,0.00,,,0.12,WUHU216HW,2013-06-14 04:16:00,
2013-06-13 21:21:00,57.8,52.7,30.18,SW,225,0.0,0.7,83,0.00,,,0.12,WUHU216HW,2013-06-14 04:21:00,
2013-06-13 21:26:00,57.6,52.5,30.19,SW,225,0.0,0.2,83,0.00,,,0.12,WUHU216HW,2013-06-14 04:26:00,
2013-06-13 21:31:00,57.6,52.5,30.19,SW,225,0.0,0.4,83,0.00,,,0.12,WUHU216HW,2013-06-14 04:31:00,
2013-06-13 21:36:00,57.4,52.3,30.19,SW,225,0.4,0.4,83,0.00,,,0.12,WUHU216HW,2013-06-14 04:36:00,
2013-06-13 21:41:00,57.2,52.4,30.19,SW,225,1.1,1.1,84,0.00,,,0.12,WUHU216HW,2013-06-14 04:41:00,
2013-06-13 21:46:00,57.2,52.4,30.19,SW,225,0.0,1.3,84,0.00,,,0.12,WUHU216HW,2013-06-14 04:46:00,
2013-06-13 21:51:00,57.1,52.2,30.19,SW,225,0.4,1.6,84,0.00,,,0.12,WUHU216HW,2013-06-14 04:51:00,
2013-06-13 21:56:00,56.9,52.0,30.19,SW,225,0.4,1.6,84,0.00,,,0.12,WUHU216HW,2013-06-14 04:56:00,
2013-06-13 22:01:00,56.9,52.0,30.19,WSW,248,1.1,1.3,84,0.00,,,0.12,WUHU216HW,2013-06-14 05:01:00,
2013-06-13 22:06:00,56.7,51.8,30.19,SW,225,1.8,2.0,84,0.00,,,0.12,WUHU216HW,2013-06-14 05:06:00,
2013-06-13 22:11:00,56.5,51.4,30.19,SW,225,2.0,3.1,83,0.00,,,0.12,WUHU216HW,2013-06-14 05:11:00,
2013-06-13 22:16:00,56.3,51.2,30.19,SW,225,1.1,3.1,83,0.00,,,0.12,WUHU216HW,2013-06-14 05:16:00,
2013-06-13 22:21:00,56.2,50.7,30.19,WSW,248,3.4,4.7,82,0.00,,,0.12,WUHU216HW,2013-06-14 05:21:00,
2013-06-13 22:26:00,55.8,50.3,30.20,SSW,203,1.3,4.7,82,0.00,,,0.12,WUHU216HW,2013-06-14 05:26:00,
2013-06-13 22:31:00,55.8,50.3,30.20,SSW,203,0.2,2.5,82,0.00,,,0.12,WUHU216HW,2013-06-14 05:31:00,
2013-06-13 22:36:00,55.6,50.1,30.20,SSW,203,1.3,2.9,82,0.00,,,0.12,WUHU216HW,2013-06-14 05:36:00,
2013-06-13 22:41:00,55.4,50.0,30.20,SSW,203,1.8,5.4,82,0.00,,,0.12,WUHU216HW,2013-06-14 05:41:00,
2013-06-13 22:46:00,55.3,49.8,30.20,SW,225,2.7,5.4,82,0.00,,,0.12,WUHU216HW,2013-06-14 05:46:00,
2013-06-13 22:51:00,55.1,49.7,30.20,WSW,248,2.2,5.4,82,0.00,,,0.12,WUHU216HW,2013-06-14 05:51:00,
2013-06-13 22:56:00,54.9,49.5,30.20,SSW,203,1.8,5.4,82,0.00,,,0.12,WUHU216HW,2013-06-14 05:56:00,
2013-06-13 23:01:00,54.7,49.3,30.20,South,180,1.1,4.5,82,0.00,,,0.12,WUHU216HW,2013-06-14 06:01:00,
2013-06-13 23:06:00,54.5,49.1,30.20,SW,225,1.3,5.8,82,0.00,,,0.12,WUHU216HW,2013-06-14 06:06:00,
2013-06-13 23:11:00,54.4,49.0,30.20,SW,225,1.8,5.8,82,0.00,,,0.12,WUHU216HW,2013-06-14 06:11:00,
2013-06-13 23:16:00,54.4,49.0,30.20,SSW,203,1.8,6.0,82,0.00,,,0.12,WUHU216HW,2013-06-14 06:16:00,
2013-06-13 23:21:00,54.4,49.0,30.20,East,90,2.2,6.0,82,0.00,,,0.12,WUHU216HW,2013-06-14 06:21:00,
2013-06-13 23:26:00,54.2,48.8,30.20,SSE,158,2.2,4.3,82,0.00,,,0.12,WUHU216HW,2013-06-14 06:26:00,
2013-06-13 23:31:00,54.0,48.6,30.20,SSW,203,2.5,3.4,82,0.00,,,0.12,WUHU216HW,2013-06-14 06:31:00,
2013-06-13 23:36:00,54.0,48.6,30.20,SSE,158,2.0,5.4,82,0.00,,,0.12,WUHU216HW,2013-06-14 06:36:00,
2013-06-13 23:41:00,53.6,48.3,30.20,SSW,203,2.0,6.3,82,0.00,,,0.12,WUHU216HW,2013-06-14 06:41:00,
2013-06-13 23:46:00,53.6,48.3,30.20,South,180,0.0,6.3,82,0.00,,,0.12,WUHU216HW,2013-06-14 06:46:00,
2013-06-13 23:51:00,53.6,48.3,30.20,SW,225,0.4,3.4,82,0.00,,,0.12,WUHU216HW,2013-06-14 06:51:00,
2013-06-13 23:56:00,53.6,48.3,30.20,SSW,203,0.2,2.0,82,0.00,,,0.12,WUHU216HW,2013-06-14 06:56:00,